Huslia Airport Huslia US
ICAO: PAHL
IATA:
Category: Medium
Scheduled Services:

Elevation: 220 ft
TransAlt. 18000 ft.

Airport Communications:
AWOS 3:135.75
ANCHORAGE CNTR:127
CTAF:122.8
FAIRBANKS RDO:122.4

PAHL Zoom In..

Runways:

(A) RW 03 length 4000 ft width 75 ft
---- / hdg 32

(B) RW 21 length 4000 ft width 75 ft
---- / hdg 212

Location; PAHL
Day. 22 / Time. 01.56 Zulu
* Altimeter: 29.47
* Temperature: 12° c. 53.6°f.
* Wind from: 080° Speed 08 kn.
Dewpoint: 06° c.
Visibility: 10 Statute Miles.
Clouds: Few 5500 ft.
Clouds: Overcast 7500 ft.

PAHL 220156Z AUTO 08008KT 10SM FEW055 OVC075 12/06 A2947 RMK AO2 SLP989 T01170061


Wind From 080°
Speed 08 kn.

 
 
jpsmedia.com for Web Design SOUNDCLOUD worldairports.se 2018   terms of use